BAW904N EGLL-EDDF
Flight info
| Callsign | BAW904N |
|---|---|
| Flight time | 1h 1m |
| Altitude | 35000 |
| Route | DET L6 DVR UL9 KONAN UL607 SPI T180 NIVNU T847 IMCOM IMCOM1A |
| Aircraft | A20N/M-SDE2E3FGHIRWXY/LB1 |
Departure
| Time | 2026-04-16 08:36 |
|---|---|
| Airport | London Heathrow Airport (EGLL) |
Arrival
| Time | 2026-04-16 09:37 |
|---|---|
| Airport | Frankfurt Main Airport (EDDF) |
| Time | Latitude | Longitude | Altitude | Speed | Heading |
|---|---|---|---|---|---|
| 2026-04-16 08:14 | 51.47231 | -0.48584 | 88 ft | 0 kts | 269° |
| 2026-04-16 08:25 | 51.47231 | -0.48579 | 86 ft | 2 kts | 268° |
| 2026-04-16 08:25 | 51.47231 | -0.48552 | 84 ft | 2 kts | 276° |
| 2026-04-16 08:25 | 51.47228 | -0.48526 | 84 ft | 2 kts | 286° |
| 2026-04-16 08:25 | 51.47222 | -0.48501 | 87 ft | 2 kts | 306° |
| 2026-04-16 08:26 | 51.47211 | -0.48483 | 90 ft | 2 kts | 335° |
| 2026-04-16 08:26 | 51.47195 | -0.48475 | 89 ft | 2 kts | 356° |
| 2026-04-16 08:26 | 51.47188 | -0.48475 | 87 ft | 0 kts | 359° |
| 2026-04-16 08:28 | 51.47201 | -0.48475 | 88 ft | 5 kts | 359° |
| 2026-04-16 08:28 | 51.47269 | -0.48476 | 84 ft | 15 kts | 359° |
| 2026-04-16 08:29 | 51.47392 | -0.48478 | 84 ft | 20 kts | 359° |
| 2026-04-16 08:29 | 51.47533 | -0.48477 | 85 ft | 19 kts | 359° |
| 2026-04-16 08:29 | 51.47577 | -0.48406 | 90 ft | 9 kts | 84° |
| 2026-04-16 08:29 | 51.47582 | -0.48297 | 91 ft | 11 kts | 89° |
| 2026-04-16 08:30 | 51.47581 | -0.48159 | 91 ft | 14 kts | 93° |
| 2026-04-16 08:30 | 51.47580 | -0.47988 | 87 ft | 17 kts | 89° |
| 2026-04-16 08:30 | 51.47583 | -0.47783 | 89 ft | 20 kts | 87° |
| 2026-04-16 08:30 | 51.47581 | -0.47520 | 90 ft | 27 kts | 91° |
| 2026-04-16 08:31 | 51.47582 | -0.47206 | 89 ft | 29 kts | 89° |
| 2026-04-16 08:31 | 51.47587 | -0.46899 | 89 ft | 28 kts | 87° |
| 2026-04-16 08:31 | 51.47594 | -0.46589 | 90 ft | 28 kts | 89° |
| 2026-04-16 08:31 | 51.47597 | -0.46278 | 87 ft | 29 kts | 90° |
| 2026-04-16 08:32 | 51.47590 | -0.45940 | 85 ft | 31 kts | 94° |
| 2026-04-16 08:32 | 51.47597 | -0.45629 | 85 ft | 26 kts | 90° |
| 2026-04-16 08:32 | 51.47599 | -0.45333 | 87 ft | 27 kts | 89° |
| 2026-04-16 08:32 | 51.47602 | -0.45029 | 88 ft | 27 kts | 89° |
| 2026-04-16 08:33 | 51.47603 | -0.44749 | 89 ft | 26 kts | 92° |
| 2026-04-16 08:33 | 51.47597 | -0.44448 | 87 ft | 28 kts | 91° |
| 2026-04-16 08:33 | 51.47593 | -0.44131 | 87 ft | 28 kts | 92° |
| 2026-04-16 08:33 | 51.47593 | -0.43868 | 86 ft | 11 kts | 89° |
| 2026-04-16 08:34 | 51.47593 | -0.43831 | 87 ft | 4 kts | 89° |
| 2026-04-16 08:34 | 51.47594 | -0.43766 | 87 ft | 8 kts | 89° |
| 2026-04-16 08:34 | 51.47596 | -0.43624 | 89 ft | 18 kts | 89° |
| 2026-04-16 08:34 | 51.47663 | -0.43454 | 87 ft | 19 kts | 53° |
| 2026-04-16 08:35 | 51.47750 | -0.43397 | 90 ft | 15 kts | 328° |
| 2026-04-16 08:35 | 51.47766 | -0.43457 | 90 ft | 0 kts | 273° |
| 2026-04-16 08:35 | 51.47766 | -0.43458 | 90 ft | 1 kts | 273° |
| 2026-04-16 08:35 | 51.47766 | -0.43529 | 89 ft | 29 kts | 269° |
| 2026-04-16 08:36 | 51.47763 | -0.44229 | 84 ft | 94 kts | 269° |
| 2026-04-16 08:36 | 51.47760 | -0.45562 | 87 ft | 143 kts | 269° |
| 2026-04-16 08:36 | 51.47771 | -0.47297 | 405 ft | 158 kts | 268° |
| 2026-04-16 08:36 | 51.47776 | -0.49029 | 1075 ft | 153 kts | 266° |
| 2026-04-16 08:37 | 51.47754 | -0.50704 | 1767 ft | 150 kts | 266° |
| 2026-04-16 08:37 | 51.47710 | -0.52461 | 2180 ft | 165 kts | 262° |
| 2026-04-16 08:37 | 51.47202 | -0.54187 | 2556 ft | 184 kts | 224° |
| 2026-04-16 08:37 | 51.45985 | -0.55123 | 2942 ft | 213 kts | 192° |
| 2026-04-16 08:38 | 51.44420 | -0.54986 | 3417 ft | 241 kts | 167° |
| 2026-04-16 08:38 | 51.42834 | -0.53777 | 4019 ft | 262 kts | 149° |
| 2026-04-16 08:38 | 51.41386 | -0.51935 | 4923 ft | 269 kts | 142° |
| 2026-04-16 08:38 | 51.40476 | -0.50570 | 5508 ft | 273 kts | 139° |
| 2026-04-16 08:39 | 51.39122 | -0.48411 | 6430 ft | 276 kts | 139° |
| 2026-04-16 08:39 | 51.37753 | -0.46208 | 7274 ft | 281 kts | 139° |
| 2026-04-16 08:39 | 51.36360 | -0.43992 | 8109 ft | 285 kts | 139° |
| 2026-04-16 08:39 | 51.34929 | -0.41747 | 8963 ft | 290 kts | 140° |
| 2026-04-16 08:40 | 51.33472 | -0.39480 | 9823 ft | 294 kts | 140° |
| 2026-04-16 08:40 | 51.31990 | -0.37184 | 10522 ft | 304 kts | 139° |
| 2026-04-16 08:40 | 51.30709 | -0.34298 | 10788 ft | 334 kts | 116° |
| 2026-04-16 08:40 | 51.30169 | -0.30562 | 11093 ft | 358 kts | 92° |
| 2026-04-16 08:41 | 51.30496 | -0.26581 | 11765 ft | 365 kts | 77° |
| 2026-04-16 08:41 | 51.31056 | -0.22604 | 12537 ft | 370 kts | 79° |
| 2026-04-16 08:41 | 51.31440 | -0.18502 | 13305 ft | 374 kts | 84° |
| 2026-04-16 08:41 | 51.31608 | -0.14339 | 14023 ft | 378 kts | 89° |
| 2026-04-16 08:42 | 51.31633 | -0.10097 | 14641 ft | 384 kts | 91° |
| 2026-04-16 08:42 | 51.31588 | -0.05808 | 15275 ft | 388 kts | 92° |
| 2026-04-16 08:42 | 51.31515 | -0.01457 | 15879 ft | 394 kts | 92° |
| 2026-04-16 08:42 | 51.31438 | 0.02881 | 16463 ft | 399 kts | 92° |
| 2026-04-16 08:43 | 51.31361 | 0.07323 | 17068 ft | 404 kts | 92° |
| 2026-04-16 08:43 | 51.31283 | 0.11868 | 17654 ft | 410 kts | 92° |
| 2026-04-16 08:43 | 51.31207 | 0.16446 | 18238 ft | 415 kts | 92° |
| 2026-04-16 08:43 | 51.31128 | 0.21072 | 18767 ft | 420 kts | 92° |
| 2026-04-16 08:44 | 51.31047 | 0.25776 | 19319 ft | 423 kts | 92° |
| 2026-04-16 08:44 | 51.30963 | 0.30498 | 19853 ft | 427 kts | 92° |
| 2026-04-16 08:44 | 51.30878 | 0.35222 | 20377 ft | 431 kts | 92° |
| 2026-04-16 08:44 | 51.30790 | 0.40039 | 20895 ft | 435 kts | 92° |
| 2026-04-16 08:45 | 51.30698 | 0.44902 | 21409 ft | 439 kts | 92° |
| 2026-04-16 08:45 | 51.30604 | 0.49795 | 21915 ft | 443 kts | 92° |
| 2026-04-16 08:45 | 51.30507 | 0.54744 | 22424 ft | 447 kts | 92° |
| 2026-04-16 08:45 | 51.30243 | 0.59707 | 22927 ft | 450 kts | 101° |
| 2026-04-16 08:46 | 51.29539 | 0.64594 | 23417 ft | 452 kts | 109° |
| 2026-04-16 08:46 | 51.28639 | 0.69421 | 23866 ft | 456 kts | 109° |
| 2026-04-16 08:46 | 51.27739 | 0.74301 | 24305 ft | 459 kts | 108° |
| 2026-04-16 08:46 | 51.26852 | 0.79126 | 24706 ft | 461 kts | 108° |
| 2026-04-16 08:47 | 51.25944 | 0.84070 | 25132 ft | 464 kts | 109° |
| 2026-04-16 08:47 | 51.25020 | 0.89085 | 25543 ft | 467 kts | 109° |
| 2026-04-16 08:47 | 51.24099 | 0.94064 | 25940 ft | 470 kts | 109° |
| 2026-04-16 08:47 | 51.23165 | 0.99102 | 26343 ft | 473 kts | 109° |
| 2026-04-16 08:48 | 51.22239 | 1.04083 | 26723 ft | 476 kts | 109° |
| 2026-04-16 08:48 | 51.21293 | 1.09160 | 27103 ft | 479 kts | 109° |
| 2026-04-16 08:48 | 51.20339 | 1.14259 | 27463 ft | 481 kts | 109° |
| 2026-04-16 08:48 | 51.19379 | 1.19378 | 27827 ft | 484 kts | 109° |
| 2026-04-16 08:49 | 51.18407 | 1.24548 | 28182 ft | 486 kts | 109° |
| 2026-04-16 08:49 | 51.17433 | 1.29715 | 28527 ft | 489 kts | 109° |
| 2026-04-16 08:49 | 51.16522 | 1.34965 | 28845 ft | 493 kts | 103° |
| 2026-04-16 08:49 | 51.16027 | 1.40367 | 29165 ft | 497 kts | 95° |
| 2026-04-16 08:50 | 51.15779 | 1.45871 | 29463 ft | 499 kts | 95° |
| 2026-04-16 08:50 | 51.15522 | 1.51405 | 29766 ft | 501 kts | 95° |
| 2026-04-16 08:50 | 51.15258 | 1.56941 | 30069 ft | 504 kts | 95° |
| 2026-04-16 08:50 | 51.14985 | 1.62544 | 30358 ft | 506 kts | 95° |
| 2026-04-16 08:51 | 51.14708 | 1.68139 | 30604 ft | 509 kts | 95° |
| 2026-04-16 08:51 | 51.14427 | 1.73764 | 30845 ft | 511 kts | 95° |
| 2026-04-16 08:51 | 51.14141 | 1.79431 | 31098 ft | 514 kts | 95° |
| 2026-04-16 08:51 | 51.13851 | 1.85118 | 31367 ft | 515 kts | 95° |
| 2026-04-16 08:52 | 51.13559 | 1.90789 | 31682 ft | 516 kts | 95° |
| 2026-04-16 08:52 | 51.13263 | 1.96497 | 31995 ft | 516 kts | 95° |
| 2026-04-16 08:52 | 51.12965 | 2.02185 | 32311 ft | 516 kts | 95° |
| 2026-04-16 08:52 | 51.12663 | 2.07880 | 32617 ft | 516 kts | 95° |
| 2026-04-16 08:53 | 51.12358 | 2.13588 | 32927 ft | 517 kts | 95° |
| 2026-04-16 08:53 | 51.12051 | 2.19277 | 33229 ft | 517 kts | 95° |
| 2026-04-16 08:53 | 51.11740 | 2.24976 | 33522 ft | 517 kts | 95° |
| 2026-04-16 08:53 | 51.11426 | 2.30678 | 33809 ft | 517 kts | 95° |
| 2026-04-16 08:54 | 51.11110 | 2.36382 | 34095 ft | 517 kts | 95° |
| 2026-04-16 08:54 | 51.10791 | 2.42081 | 34351 ft | 517 kts | 95° |
| 2026-04-16 08:54 | 51.10474 | 2.47692 | 34634 ft | 515 kts | 95° |
| 2026-04-16 08:54 | 51.10151 | 2.53369 | 34912 ft | 514 kts | 95° |
| 2026-04-16 08:55 | 51.09826 | 2.59028 | 35153 ft | 513 kts | 95° |
| 2026-04-16 08:55 | 51.09392 | 2.64654 | 35214 ft | 511 kts | 101° |
| 2026-04-16 08:55 | 51.07593 | 2.75557 | 35216 ft | 510 kts | 107° |
| 2026-04-16 08:56 | 51.05623 | 2.86388 | 35216 ft | 509 kts | 107° |
| 2026-04-16 08:56 | 51.03649 | 2.97221 | 35215 ft | 509 kts | 107° |
| 2026-04-16 08:57 | 51.01672 | 3.07998 | 35213 ft | 509 kts | 107° |
| 2026-04-16 08:57 | 50.99681 | 3.18777 | 35210 ft | 508 kts | 107° |
| 2026-04-16 08:58 | 50.97696 | 3.29463 | 35208 ft | 508 kts | 107° |
| 2026-04-16 08:58 | 50.95691 | 3.40199 | 35209 ft | 507 kts | 108° |
| 2026-04-16 08:59 | 50.93677 | 3.50917 | 35211 ft | 507 kts | 108° |
| 2026-04-16 08:59 | 50.91654 | 3.61620 | 35207 ft | 506 kts | 108° |
| 2026-04-16 09:00 | 50.89614 | 3.72293 | 35211 ft | 506 kts | 108° |
| 2026-04-16 09:00 | 50.87547 | 3.82973 | 35210 ft | 506 kts | 108° |
| 2026-04-16 09:01 | 50.84440 | 3.98941 | 35212 ft | 505 kts | 108° |
| 2026-04-16 09:02 | 50.82360 | 4.09564 | 35212 ft | 505 kts | 108° |
| 2026-04-16 09:02 | 50.80273 | 4.20160 | 35213 ft | 505 kts | 108° |
| 2026-04-16 09:03 | 50.78176 | 4.30750 | 35214 ft | 504 kts | 108° |
| 2026-04-16 09:03 | 50.76073 | 4.41315 | 35216 ft | 504 kts | 108° |
| 2026-04-16 09:04 | 50.73958 | 4.51878 | 35211 ft | 504 kts | 108° |
| 2026-04-16 09:04 | 50.71842 | 4.62409 | 35216 ft | 503 kts | 108° |
| 2026-04-16 09:05 | 50.69812 | 4.72889 | 35218 ft | 503 kts | 107° |
| 2026-04-16 09:05 | 50.67770 | 4.83456 | 35220 ft | 503 kts | 107° |
| 2026-04-16 09:06 | 50.65707 | 4.93996 | 35225 ft | 502 kts | 108° |
| 2026-04-16 09:06 | 50.63562 | 5.04457 | 35230 ft | 502 kts | 108° |
| 2026-04-16 09:07 | 50.61393 | 5.14913 | 35230 ft | 502 kts | 108° |
| 2026-04-16 09:07 | 50.59230 | 5.25339 | 35227 ft | 501 kts | 108° |
| 2026-04-16 09:08 | 50.57057 | 5.35769 | 35230 ft | 501 kts | 108° |
| 2026-04-16 09:08 | 50.54878 | 5.46183 | 35229 ft | 501 kts | 108° |
| 2026-04-16 09:09 | 50.52688 | 5.56593 | 35227 ft | 501 kts | 109° |
| 2026-04-16 09:09 | 50.50534 | 5.66977 | 35227 ft | 501 kts | 107° |
| 2026-04-16 09:10 | 50.48605 | 5.77486 | 35222 ft | 501 kts | 106° |
| 2026-04-16 09:10 | 50.46665 | 5.88024 | 35103 ft | 502 kts | 106° |
| 2026-04-16 09:10 | 50.45681 | 5.93280 | 34759 ft | 501 kts | 106° |
| 2026-04-16 09:11 | 50.44688 | 5.98540 | 34051 ft | 504 kts | 106° |
| 2026-04-16 09:11 | 50.43684 | 6.03835 | 33134 ft | 508 kts | 107° |
| 2026-04-16 09:11 | 50.42687 | 6.09082 | 32220 ft | 512 kts | 107° |
| 2026-04-16 09:11 | 50.41659 | 6.14473 | 31268 ft | 516 kts | 107° |
| 2026-04-16 09:12 | 50.40628 | 6.19869 | 30332 ft | 519 kts | 107° |
| 2026-04-16 09:12 | 50.39592 | 6.25272 | 29359 ft | 519 kts | 107° |
| 2026-04-16 09:12 | 50.38560 | 6.30640 | 28777 ft | 503 kts | 107° |
| 2026-04-16 09:12 | 50.37561 | 6.35824 | 28229 ft | 489 kts | 107° |
| 2026-04-16 09:13 | 50.36652 | 6.40855 | 27690 ft | 475 kts | 102° |
| 2026-04-16 09:13 | 50.36133 | 6.45889 | 27164 ft | 462 kts | 94° |
| 2026-04-16 09:13 | 50.35851 | 6.50827 | 26658 ft | 449 kts | 94° |
| 2026-04-16 09:13 | 50.35558 | 6.55642 | 26150 ft | 438 kts | 95° |
| 2026-04-16 09:14 | 50.35259 | 6.60343 | 25671 ft | 435 kts | 95° |
| 2026-04-16 09:14 | 50.34950 | 6.65155 | 25177 ft | 453 kts | 95° |
| 2026-04-16 09:14 | 50.34631 | 6.70106 | 24684 ft | 458 kts | 95° |
| 2026-04-16 09:14 | 50.34310 | 6.75065 | 24134 ft | 455 kts | 95° |
| 2026-04-16 09:15 | 50.33998 | 6.79959 | 23595 ft | 446 kts | 95° |
| 2026-04-16 09:15 | 50.33525 | 6.84719 | 23073 ft | 441 kts | 103° |
| 2026-04-16 09:15 | 50.32648 | 6.89265 | 22586 ft | 435 kts | 112° |
| 2026-04-16 09:15 | 50.31425 | 6.93570 | 22086 ft | 429 kts | 117° |
| 2026-04-16 09:16 | 50.30160 | 6.97775 | 21596 ft | 425 kts | 116° |
| 2026-04-16 09:16 | 50.28920 | 7.01926 | 21108 ft | 420 kts | 116° |
| 2026-04-16 09:16 | 50.27690 | 7.06058 | 20621 ft | 416 kts | 116° |
| 2026-04-16 09:16 | 50.26491 | 7.10078 | 20154 ft | 412 kts | 116° |
| 2026-04-16 09:17 | 50.25282 | 7.14126 | 19665 ft | 408 kts | 116° |
| 2026-04-16 09:17 | 50.24085 | 7.18120 | 19195 ft | 404 kts | 116° |
| 2026-04-16 09:17 | 50.22897 | 7.22079 | 18724 ft | 401 kts | 116° |
| 2026-04-16 09:17 | 50.21717 | 7.26000 | 18208 ft | 397 kts | 116° |
| 2026-04-16 09:18 | 50.20553 | 7.29867 | 17744 ft | 392 kts | 116° |
| 2026-04-16 09:18 | 50.19436 | 7.33708 | 17286 ft | 387 kts | 112° |
| 2026-04-16 09:18 | 50.18502 | 7.37645 | 16816 ft | 383 kts | 111° |
| 2026-04-16 09:18 | 50.17609 | 7.41416 | 16379 ft | 379 kts | 111° |
| 2026-04-16 09:19 | 50.16676 | 7.45338 | 15928 ft | 375 kts | 111° |
| 2026-04-16 09:19 | 50.15766 | 7.49143 | 15482 ft | 372 kts | 111° |
| 2026-04-16 09:19 | 50.14870 | 7.52888 | 15043 ft | 368 kts | 111° |
| 2026-04-16 09:19 | 50.13972 | 7.56627 | 14611 ft | 365 kts | 111° |
| 2026-04-16 09:20 | 50.13085 | 7.60316 | 14185 ft | 362 kts | 111° |
| 2026-04-16 09:20 | 50.12204 | 7.63978 | 13733 ft | 359 kts | 111° |
| 2026-04-16 09:20 | 50.11274 | 7.67569 | 13300 ft | 354 kts | 117° |
| 2026-04-16 09:20 | 50.10062 | 7.70855 | 13034 ft | 346 kts | 126° |
| 2026-04-16 09:21 | 50.08635 | 7.74017 | 12802 ft | 364 kts | 126° |
| 2026-04-16 09:21 | 50.07208 | 7.77214 | 12551 ft | 361 kts | 126° |
| 2026-04-16 09:21 | 50.05787 | 7.80415 | 12311 ft | 357 kts | 126° |
| 2026-04-16 09:21 | 50.04380 | 7.83585 | 12078 ft | 356 kts | 126° |
| 2026-04-16 09:22 | 50.02972 | 7.86750 | 11830 ft | 355 kts | 126° |
| 2026-04-16 09:22 | 50.01567 | 7.89900 | 11593 ft | 353 kts | 126° |
| 2026-04-16 09:22 | 50.00365 | 7.93197 | 11351 ft | 352 kts | 110° |
| 2026-04-16 09:22 | 49.99964 | 7.96927 | 11154 ft | 350 kts | 87° |
| 2026-04-16 09:23 | 50.00452 | 8.00617 | 11081 ft | 350 kts | 70° |
| 2026-04-16 09:23 | 50.01333 | 8.04133 | 10972 ft | 350 kts | 66° |
| 2026-04-16 09:23 | 50.02282 | 8.07614 | 10867 ft | 348 kts | 66° |
| 2026-04-16 09:23 | 50.03197 | 8.11039 | 10772 ft | 347 kts | 66° |
| 2026-04-16 09:24 | 50.03801 | 8.13381 | 10718 ft | 343 kts | 67° |
| 2026-04-16 09:24 | 50.04925 | 8.17879 | 10598 ft | 329 kts | 68° |
| 2026-04-16 09:24 | 50.05725 | 8.21156 | 10494 ft | 317 kts | 68° |
| 2026-04-16 09:24 | 50.06487 | 8.24302 | 10378 ft | 305 kts | 68° |
| 2026-04-16 09:25 | 50.07223 | 8.27350 | 10150 ft | 298 kts | 68° |
| 2026-04-16 09:25 | 50.07948 | 8.30351 | 9803 ft | 295 kts | 68° |
| 2026-04-16 09:25 | 50.08424 | 8.32319 | 9637 ft | 293 kts | 68° |
| 2026-04-16 09:25 | 50.09144 | 8.35309 | 9346 ft | 297 kts | 68° |
| 2026-04-16 09:26 | 50.09866 | 8.38309 | 9062 ft | 294 kts | 68° |
| 2026-04-16 09:26 | 50.10582 | 8.41287 | 8766 ft | 291 kts | 68° |
| 2026-04-16 09:26 | 50.11284 | 8.44210 | 8484 ft | 291 kts | 68° |
| 2026-04-16 09:26 | 50.12228 | 8.48139 | 8122 ft | 289 kts | 68° |
| 2026-04-16 09:27 | 50.12700 | 8.50110 | 7933 ft | 287 kts | 68° |
| 2026-04-16 09:27 | 50.13401 | 8.53042 | 7658 ft | 289 kts | 69° |
| 2026-04-16 09:27 | 50.14100 | 8.55965 | 7388 ft | 286 kts | 69° |
| 2026-04-16 09:27 | 50.14792 | 8.58860 | 7111 ft | 284 kts | 69° |
| 2026-04-16 09:28 | 50.15481 | 8.61752 | 6838 ft | 285 kts | 69° |
| 2026-04-16 09:28 | 50.16165 | 8.64640 | 6564 ft | 283 kts | 69° |
| 2026-04-16 09:28 | 50.16839 | 8.67475 | 6254 ft | 281 kts | 69° |
| 2026-04-16 09:28 | 50.17513 | 8.70311 | 5904 ft | 279 kts | 69° |
| 2026-04-16 09:29 | 50.18182 | 8.73129 | 5566 ft | 277 kts | 69° |
| 2026-04-16 09:29 | 50.18849 | 8.75945 | 5231 ft | 275 kts | 69° |
| 2026-04-16 09:29 | 50.19508 | 8.78728 | 5035 ft | 269 kts | 70° |
| 2026-04-16 09:29 | 50.20148 | 8.81448 | 4992 ft | 262 kts | 70° |
| 2026-04-16 09:30 | 50.20761 | 8.84058 | 4990 ft | 249 kts | 71° |
| 2026-04-16 09:30 | 50.20916 | 8.86618 | 4987 ft | 232 kts | 103° |
| 2026-04-16 09:30 | 50.20200 | 8.88919 | 4989 ft | 242 kts | 134° |
| 2026-04-16 09:30 | 50.18841 | 8.90327 | 4994 ft | 229 kts | 162° |
| 2026-04-16 09:31 | 50.17380 | 8.91102 | 4994 ft | 216 kts | 165° |
| 2026-04-16 09:31 | 50.15969 | 8.91225 | 4980 ft | 198 kts | 199° |
| 2026-04-16 09:31 | 50.14864 | 8.90175 | 5003 ft | 184 kts | 223° |
| 2026-04-16 09:31 | 50.13901 | 8.88825 | 4983 ft | 189 kts | 224° |
| 2026-04-16 09:32 | 50.12982 | 8.87355 | 4983 ft | 185 kts | 235° |
| 2026-04-16 09:32 | 50.12330 | 8.85625 | 4945 ft | 186 kts | 245° |
| 2026-04-16 09:32 | 50.11829 | 8.83742 | 4751 ft | 190 kts | 250° |
| 2026-04-16 09:32 | 50.11374 | 8.81804 | 4458 ft | 191 kts | 250° |
| 2026-04-16 09:33 | 50.10918 | 8.79901 | 4201 ft | 189 kts | 250° |
| 2026-04-16 09:33 | 50.10468 | 8.78013 | 3903 ft | 180 kts | 250° |
| 2026-04-16 09:33 | 50.10039 | 8.76214 | 3663 ft | 180 kts | 250° |
| 2026-04-16 09:33 | 50.09599 | 8.74358 | 3399 ft | 183 kts | 250° |
| 2026-04-16 09:34 | 50.09153 | 8.72503 | 3136 ft | 181 kts | 250° |
| 2026-04-16 09:34 | 50.08718 | 8.70681 | 2877 ft | 179 kts | 250° |
| 2026-04-16 09:34 | 50.08270 | 8.68852 | 2620 ft | 180 kts | 249° |
| 2026-04-16 09:34 | 50.07848 | 8.67030 | 2366 ft | 178 kts | 250° |
| 2026-04-16 09:35 | 50.07419 | 8.65252 | 2110 ft | 171 kts | 250° |
| 2026-04-16 09:35 | 50.07023 | 8.63579 | 1881 ft | 157 kts | 250° |
| 2026-04-16 09:35 | 50.06661 | 8.62067 | 1655 ft | 142 kts | 250° |
| 2026-04-16 09:35 | 50.06326 | 8.60681 | 1446 ft | 134 kts | 250° |
| 2026-04-16 09:36 | 50.06015 | 8.59363 | 1260 ft | 133 kts | 249° |
| 2026-04-16 09:36 | 50.05690 | 8.57998 | 1068 ft | 133 kts | 249° |
| 2026-04-16 09:36 | 50.05372 | 8.56664 | 852 ft | 134 kts | 248° |
| 2026-04-16 09:36 | 50.05051 | 8.55309 | 671 ft | 133 kts | 247° |
| 2026-04-16 09:37 | 50.04726 | 8.53951 | 477 ft | 133 kts | 248° |
| 2026-04-16 09:37 | 50.04401 | 8.52617 | 352 ft | 126 kts | 248° |
| 2026-04-16 09:37 | 50.04196 | 8.51779 | 354 ft | 57 kts | 247° |
| 2026-04-16 09:37 | 50.03961 | 8.51376 | 348 ft | 29 kts | 192° |
| 2026-04-16 09:38 | 50.03915 | 8.51410 | 349 ft | 0 kts | 124° |
| 2026-04-16 09:38 | 50.03914 | 8.51416 | 349 ft | 2 kts | 111° |
| 2026-04-16 09:38 | 50.03915 | 8.51475 | 345 ft | 10 kts | 87° |
| 2026-04-16 09:39 | 50.03944 | 8.51617 | 349 ft | 18 kts | 71° |
| 2026-04-16 09:39 | 50.03994 | 8.51836 | 349 ft | 25 kts | 69° |
| 2026-04-16 09:39 | 50.04064 | 8.52115 | 347 ft | 30 kts | 69° |
| 2026-04-16 09:39 | 50.04143 | 8.52430 | 352 ft | 32 kts | 68° |
| 2026-04-16 09:40 | 50.04221 | 8.52758 | 353 ft | 33 kts | 70° |
| 2026-04-16 09:40 | 50.04295 | 8.53070 | 347 ft | 31 kts | 70° |
| 2026-04-16 09:40 | 50.04372 | 8.53392 | 352 ft | 32 kts | 70° |
| 2026-04-16 09:40 | 50.04408 | 8.53714 | 347 ft | 30 kts | 86° |
| 2026-04-16 09:41 | 50.04428 | 8.54044 | 354 ft | 31 kts | 84° |
| 2026-04-16 09:41 | 50.04449 | 8.54383 | 350 ft | 32 kts | 84° |